Time;durP1;ratioP1;P1;durP2;ratioP2;P2;SDS_P1;SDS_P2;PMS_P1;PMS_P2;Temp;Humidity;BMP_temperature;BMP_pressure;BME280_temperature;BME280_humidity;BME280_pressure;Samples;Min_cycle;Max_cycle;Signal;HPM_P1;HPM_P2
2023/08/26 00:00:28;;;;;;;9.95;8.30;;;29.90;84.00;;;;;;4994610;28;20257;-84
2023/08/26 00:02:54;;;;;;;9.43;8.48;;;29.90;84.00;;;;;;4994734;28;20041;-84
2023/08/26 00:05:20;;;;;;;9.65;8.70;;;29.90;84.10;;;;;;5004997;28;20044;-84
2023/08/26 00:07:46;;;;;;;8.95;8.07;;;29.90;84.00;;;;;;5007972;28;20101;-84
2023/08/26 00:10:12;;;;;;;9.00;8.20;;;29.90;84.20;;;;;;4995880;28;20463;-84
2023/08/26 00:12:38;;;;;;;9.60;8.60;;;29.80;84.30;;;;;;5008723;28;20389;-84
2023/08/26 00:15:04;;;;;;;8.95;8.10;;;29.80;84.30;;;;;;4976852;28;20081;-85
2023/08/26 00:17:29;;;;;;;11.45;9.02;;;29.80;84.30;;;;;;4994333;28;20035;-84
2023/08/26 00:19:55;;;;;;;9.50;8.70;;;29.70;84.40;;;;;;4992917;28;20037;-82
2023/08/26 00:22:21;;;;;;;9.68;8.73;;;29.70;84.50;;;;;;4994153;28;20037;-85
2023/08/26 00:24:47;;;;;;;9.95;8.95;;;29.70;84.40;;;;;;4975392;28;20018;-84
2023/08/26 00:27:13;;;;;;;9.30;8.40;;;29.70;84.40;;;;;;4985336;28;20034;-84
2023/08/26 00:29:40;;;;;;;9.63;8.60;;;29.70;84.20;;;;;;5011868;28;20083;-84
2023/08/26 00:32:06;;;;;;;8.77;7.97;;;29.60;84.10;;;;;;5002830;28;20037;-84
2023/08/26 00:34:32;;;;;;;10.40;7.78;;;29.60;83.80;;;;;;4994253;28;20026;-84
2023/08/26 00:36:57;;;;;;;10.43;9.35;;;29.60;83.80;;;;;;4994226;28;20030;-84
2023/08/26 00:39:23;;;;;;;11.07;9.38;;;29.60;83.90;;;;;;4994127;28;20061;-84
2023/08/26 00:41:49;;;;;;;8.55;7.75;;;29.60;83.80;;;;;;4976739;28;20482;-84
2023/08/26 00:44:14;;;;;;;10.57;9.52;;;29.50;83.80;;;;;;4994298;28;20488;-84
2023/08/26 00:46:40;;;;;;;8.70;7.85;;;29.60;83.70;;;;;;5002196;28;20030;-84
2023/08/26 00:49:08;;;;;;;9.32;8.43;;;29.60;83.70;;;;;;5013747;28;20022;-82
2023/08/26 00:51:36;;;;;;;9.87;8.97;;;29.60;83.50;;;;;;5010886;28;20038;-83
2023/08/26 00:54:04;;;;;;;9.18;8.25;;;29.60;83.30;;;;;;4993720;28;20026;-84
2023/08/26 00:56:30;;;;;;;9.82;7.90;;;29.60;83.30;;;;;;4993711;28;20048;-84
2023/08/26 00:58:56;;;;;;;10.85;8.75;;;29.60;83.30;;;;;;4993440;28;20034;-84
2023/08/26 01:01:24;;;;;;;9.27;7.50;;;29.60;83.30;;;;;;4993756;28;20034;-84
2023/08/26 01:03:50;;;;;;;8.68;7.88;;;29.60;83.30;;;;;;5009776;28;20104;-83
2023/08/26 01:06:16;;;;;;;8.27;7.47;;;29.60;83.30;;;;;;4987695;28;20130;-83
2023/08/26 01:08:41;;;;;;;8.88;7.75;;;29.60;83.20;;;;;;4993841;28;20031;-83
2023/08/26 01:11:09;;;;;;;8.73;7.90;;;29.60;83.00;;;;;;4983625;28;20037;-83
2023/08/26 01:13:46;;;;;;;8.70;7.90;;;29.60;83.00;;;;;;4993029;28;20399;-83
2023/08/26 01:16:13;;;;;;;8.63;7.78;;;29.60;82.90;;;;;;4993594;28;20050;-84
2023/08/26 01:18:40;;;;;;;8.63;7.78;;;29.60;82.70;;;;;;4993907;28;20066;-83
2023/08/26 01:21:08;;;;;;;8.32;7.57;;;29.60;82.70;;;;;;4993845;28;20039;-84
2023/08/26 01:23:40;;;;;;;8.38;7.57;;;29.60;82.70;;;;;;4993620;28;20395;-84
2023/08/26 01:26:07;;;;;;;8.60;7.75;;;29.60;82.50;;;;;;4993607;28;20427;-83
2023/08/26 01:28:32;;;;;;;8.75;7.95;;;29.60;82.50;;;;;;4995629;28;20018;-84
2023/08/26 01:31:11;;;;;;;7.97;7.28;;;29.50;82.10;;;;;;4993943;28;20034;-84
2023/08/26 01:33:52;;;;;;;8.18;7.38;;;29.50;81.80;;;;;;4993583;28;20068;-84
2023/08/26 01:36:22;;;;;;;9.63;7.30;;;29.40;81.70;;;;;;4976279;28;20093;-83
2023/08/26 01:38:48;;;;;;;7.88;7.07;;;29.40;81.70;;;;;;4993963;28;20035;-83
2023/08/26 01:41:17;;;;;;;9.35;7.80;;;29.40;81.70;;;;;;5000441;28;20026;-84
2023/08/26 01:43:43;;;;;;;8.88;8.05;;;29.40;81.70;;;;;;5004614;28;20029;-83
2023/08/26 01:46:09;;;;;;;8.80;7.80;;;29.30;81.30;;;;;;4994034;28;20034;-84
2023/08/26 01:48:34;;;;;;;9.95;9.05;;;29.10;81.40;;;;;;4995036;28;20023;-81
2023/08/26 01:51:00;;;;;;;9.98;8.98;;;29.00;81.50;;;;;;4979126;28;20026;-82
2023/08/26 01:53:26;;;;;;;12.13;10.32;;;28.90;81.60;;;;;;4994241;28;20241;-81
2023/08/26 01:55:51;;;;;;;12.43;11.13;;;28.90;82.10;;;;;;4996356;28;20034;-81
2023/08/26 01:58:17;;;;;;;10.88;9.77;;;28.80;82.30;;;;;;4995993;28;20039;-80
2023/08/26 02:00:43;;;;;;;13.15;10.63;;;28.60;82.40;;;;;;4996392;28;20436;-82
2023/08/26 02:03:09;;;;;;;11.57;10.13;;;28.50;82.60;;;;;;4997102;28;20030;-83
2023/08/26 02:05:34;;;;;;;9.40;8.48;;;28.50;82.80;;;;;;4996231;28;20116;-81
2023/08/26 02:08:00;;;;;;;9.90;8.77;;;28.50;82.80;;;;;;4996192;28;20031;-81
2023/08/26 02:10:25;;;;;;;9.65;8.65;;;28.50;82.60;;;;;;5001349;28;20121;-81
2023/08/26 02:12:51;;;;;;;10.50;8.75;;;28.50;82.40;;;;;;4996714;28;20031;-81
2023/08/26 02:15:17;;;;;;;8.85;7.80;;;28.50;82.20;;;;;;4995412;28;20041;-81
2023/08/26 02:17:42;;;;;;;10.27;8.18;;;28.50;81.90;;;;;;4996038;28;20026;-81
2023/08/26 02:20:09;;;;;;;10.35;8.30;;;28.60;81.80;;;;;;4996213;28;20117;-82
2023/08/26 02:22:35;;;;;;;9.18;8.27;;;28.60;81.40;;;;;;4996506;28;20422;-80
2023/08/26 02:25:00;;;;;;;9.70;8.70;;;28.60;81.10;;;;;;4995302;28;20084;-80
2023/08/26 02:27:26;;;;;;;8.85;7.95;;;28.70;80.90;;;;;;4995920;28;20031;-80
2023/08/26 02:29:52;;;;;;;8.45;7.65;;;28.80;80.50;;;;;;4997530;28;20037;-80
2023/08/26 02:32:18;;;;;;;8.35;7.55;;;28.80;80.30;;;;;;5003014;28;20387;-80
2023/08/26 02:34:44;;;;;;;9.32;8.43;;;28.80;80.20;;;;;;4995303;28;20451;-80
2023/08/26 02:37:10;;;;;;;10.52;8.60;;;28.80;79.90;;;;;;4995508;28;20042;-80
2023/08/26 02:39:35;;;;;;;8.45;7.60;;;28.80;79.90;;;;;;4995701;28;20125;-80
2023/08/26 02:42:01;;;;;;;9.15;8.25;;;28.70;79.70;;;;;;5001331;28;20102;-80
2023/08/26 02:44:26;;;;;;;9.80;8.90;;;28.70;79.70;;;;;;4994689;28;20463;-80
2023/08/26 02:46:52;;;;;;;11.80;10.35;;;28.70;79.60;;;;;;5002712;28;20360;-80
2023/08/26 02:49:18;;;;;;;12.45;10.30;;;28.60;79.60;;;;;;4976791;28;20132;-82
2023/08/26 02:51:43;;;;;;;11.05;9.52;;;28.40;79.80;;;;;;5001387;28;20030;-83
2023/08/26 02:54:09;;;;;;;14.25;11.40;;;28.20;80.40;;;;;;4995262;28;20022;-85
2023/08/26 02:56:35;;;;;;;10.25;7.85;;;28.00;80.70;;;;;;4996043;28;20061;-84
2023/08/26 02:59:00;;;;;;;11.82;7.97;;;27.90;81.00;;;;;;4992812;28;20105;-85
2023/08/26 03:01:30;;;;;;;9.65;8.32;;;27.90;81.10;;;;;;4980528;28;20061;-84
2023/08/26 03:06:34;;;;;;;9.43;8.40;;;28.00;81.10;;;;;;4215045;23;20089;-87
2023/08/26 03:09:00;;;;;;;9.98;8.38;;;28.10;80.80;;;;;;5014642;28;20080;-82
2023/08/26 03:11:25;;;;;;;12.07;8.40;;;28.10;80.60;;;;;;4997022;28;20385;-83
2023/08/26 03:13:51;;;;;;;11.70;8.10;;;28.10;80.50;;;;;;5011383;28;20022;-81
2023/08/26 03:16:17;;;;;;;9.60;8.60;;;28.20;80.40;;;;;;4999946;28;20103;-82
2023/08/26 03:18:42;;;;;;;11.93;7.85;;;28.20;80.30;;;;;;5005523;28;20030;-83
2023/08/26 03:21:09;;;;;;;11.15;7.63;;;28.30;80.50;;;;;;4997968;28;20397;-83
2023/08/26 03:23:35;;;;;;;10.10;8.13;;;28.30;80.60;;;;;;5000671;28;20029;-83
2023/08/26 03:26:02;;;;;;;8.75;7.85;;;28.30;80.80;;;;;;5014466;28;20184;-83
2023/08/26 03:28:28;;;;;;;9.73;7.43;;;28.20;80.80;;;;;;5015242;28;20070;-84
2023/08/26 03:30:53;;;;;;;8.70;6.90;;;28.20;81.00;;;;;;5014996;28;20116;-83
2023/08/26 03:33:19;;;;;;;12.02;7.93;;;28.30;80.90;;;;;;5014914;28;20066;-84
2023/08/26 03:35:45;;;;;;;8.90;7.47;;;28.30;80.90;;;;;;5016541;28;20141;-83
2023/08/26 03:38:10;;;;;;;9.45;7.80;;;28.30;80.80;;;;;;5015009;28;20104;-83
2023/08/26 03:40:42;;;;;;;9.23;8.23;;;28.30;80.70;;;;;;5015102;28;20117;-82
2023/08/26 03:43:08;;;;;;;9.15;7.53;;;28.30;80.60;;;;;;5014444;28;20034;-81
2023/08/26 03:45:34;;;;;;;9.25;8.35;;;28.30;80.40;;;;;;4992744;28;20085;-82
2023/08/26 03:47:59;;;;;;;7.95;7.15;;;28.30;80.30;;;;;;5009885;28;20026;-82
2023/08/26 03:50:25;;;;;;;9.13;6.90;;;28.30;80.30;;;;;;5004034;28;20041;-85
2023/08/26 03:52:51;;;;;;;11.68;7.07;;;28.30;80.20;;;;;;5003298;28;20042;-86
2023/08/26 03:55:16;;;;;;;10.20;8.00;;;28.30;80.20;;;;;;5010289;28;20454;-85
2023/08/26 03:57:42;;;;;;;8.77;7.70;;;28.30;80.00;;;;;;5009967;28;20497;-84
2023/08/26 04:00:08;;;;;;;9.18;7.22;;;28.30;79.90;;;;;;5014676;28;20462;-84
2023/08/26 04:02:34;;;;;;;9.52;7.35;;;28.20;79.80;;;;;;5004599;28;20483;-83
2023/08/26 04:04:59;;;;;;;7.68;6.82;;;28.10;79.60;;;;;;5006721;28;20035;-85
2023/08/26 04:07:25;;;;;;;10.30;7.40;;;28.00;79.80;;;;;;5014229;28;20033;-84
2023/08/26 04:09:51;;;;;;;9.70;8.70;;;28.00;79.70;;;;;;5018061;28;20030;-85
2023/08/26 04:12:16;;;;;;;14.32;10.82;;;27.70;79.70;;;;;;5015158;28;20459;-85
2023/08/26 04:14:42;;;;;;;12.02;9.15;;;27.50;80.20;;;;;;5014887;28;20034;-85
2023/08/26 04:17:08;;;;;;;7.70;7.00;;;27.40;80.60;;;;;;5014977;28;20025;-85
2023/08/26 04:19:34;;;;;;;8.75;7.85;;;27.40;80.80;;;;;;5032243;28;20034;-86
2023/08/26 04:22:01;;;;;;;9.40;8.25;;;27.40;80.80;;;;;;5018780;28;20018;-85
2023/08/26 04:24:27;;;;;;;14.75;8.80;;;27.40;80.50;;;;;;4993872;28;20411;-85
2023/08/26 04:26:53;;;;;;;13.00;9.68;;;27.40;80.30;;;;;;4977610;28;20037;-86
2023/08/26 04:29:18;;;;;;;8.35;7.55;;;27.30;80.20;;;;;;5001140;28;20124;-86
2023/08/26 04:31:44;;;;;;;9.07;7.93;;;27.30;80.50;;;;;;5014198;28;20536;-87
2023/08/26 04:34:11;;;;;;;8.30;7.43;;;27.30;80.60;;;;;;5017355;28;20125;-86
2023/08/26 04:36:36;;;;;;;12.02;7.13;;;27.30;80.60;;;;;;5017506;28;20517;-84
2023/08/26 04:39:09;;;;;;;11.05;7.60;;;27.30;80.50;;;;;;5013628;28;20060;-83
2023/08/26 04:41:39;;;;;;;9.07;7.40;;;27.30;80.30;;;;;;5001996;28;20053;-84
2023/08/26 04:44:07;;;;;;;7.87;6.47;;;27.30;80.30;;;;;;5013827;28;20048;-83
2023/08/26 04:46:33;;;;;;;10.95;8.35;;;27.30;80.40;;;;;;4996568;28;20022;-82
2023/08/26 04:48:59;;;;;;;9.63;8.30;;;27.30;80.30;;;;;;5013872;28;20025;-82
2023/08/26 04:51:24;;;;;;;9.02;8.10;;;27.30;80.50;;;;;;5014836;28;20382;-85
2023/08/26 04:53:50;;;;;;;9.82;7.32;;;27.20;80.40;;;;;;4996647;28;20385;-85
2023/08/26 04:56:16;;;;;;;9.20;7.10;;;27.20;80.60;;;;;;5014107;28;20061;-85
2023/08/26 04:58:41;;;;;;;7.45;6.50;;;27.10;80.60;;;;;;5014764;28;20022;-86
2023/08/26 05:01:07;;;;;;;10.88;8.65;;;27.10;80.60;;;;;;4996855;28;20052;-86
2023/08/26 05:03:33;;;;;;;10.50;6.72;;;27.10;80.60;;;;;;5014141;28;20042;-87
2023/08/26 05:06:07;;;;;;;7.90;6.65;;;27.10;80.70;;;;;;4991817;28;20053;-85
2023/08/26 05:08:33;;;;;;;7.15;6.45;;;27.20;80.70;;;;;;5012484;28;20022;-85
2023/08/26 05:10:59;;;;;;;10.27;6.68;;;27.30;80.50;;;;;;5014000;28;20387;-84
2023/08/26 05:13:25;;;;;;;9.10;7.43;;;27.40;80.20;;;;;;5013149;28;20469;-85
2023/08/26 05:15:50;;;;;;;7.10;6.15;;;27.50;79.90;;;;;;5013144;28;20030;-84
2023/08/26 05:18:18;;;;;;;7.97;6.95;;;27.60;79.60;;;;;;4994480;28;20551;-84
2023/08/26 05:20:44;;;;;;;8.88;7.07;;;27.60;79.40;;;;;;5024361;28;20022;-84
2023/08/26 05:23:12;;;;;;;7.70;6.55;;;27.70;79.10;;;;;;5000320;28;20038;-84
2023/08/26 05:25:38;;;;;;;9.63;6.15;;;27.70;78.90;;;;;;5016646;28;20113;-84
2023/08/26 05:28:04;;;;;;;7.65;6.32;;;27.70;78.70;;;;;;4999480;28;20100;-84
2023/08/26 05:30:30;;;;;;;8.38;6.70;;;27.80;78.90;;;;;;5017491;28;20049;-84
2023/08/26 05:32:56;;;;;;;7.90;6.75;;;27.80;79.00;;;;;;4998406;28;20482;-85
2023/08/26 05:35:22;;;;;;;7.28;5.85;;;27.90;78.90;;;;;;5003152;28;20046;-86
2023/08/26 05:37:48;;;;;;;8.38;6.40;;;27.80;78.60;;;;;;5010314;28;20037;-86
2023/08/26 05:40:15;;;;;;;10.43;6.68;;;27.90;78.40;;;;;;4999223;28;20029;-86
2023/08/26 05:42:41;;;;;;;8.55;6.57;;;27.90;78.20;;;;;;4998731;28;20018;-87
2023/08/26 05:45:08;;;;;;;7.70;6.32;;;28.00;78.10;;;;;;5017107;28;20080;-86
2023/08/26 05:47:34;;;;;;;8.45;6.70;;;28.00;77.90;;;;;;5031213;28;20032;-85
2023/08/26 05:50:00;;;;;;;7.90;6.18;;;28.00;77.90;;;;;;5013887;28;20128;-87
2023/08/26 05:52:26;;;;;;;7.47;5.85;;;28.00;78.00;;;;;;5017245;28;20068;-86
2023/08/26 05:54:53;;;;;;;7.20;6.50;;;28.00;78.00;;;;;;5017129;28;20033;-85
2023/08/26 05:57:18;;;;;;;7.25;6.10;;;28.00;78.00;;;;;;5012485;28;20105;-85
2023/08/26 05:59:44;;;;;;;6.25;5.65;;;28.00;78.30;;;;;;5015786;28;20137;-86
2023/08/26 06:02:15;;;;;;;9.90;6.82;;;28.10;78.40;;;;;;4997133;28;20038;-85
2023/08/26 06:04:41;;;;;;;9.95;6.50;;;28.00;78.30;;;;;;5010737;28;20034;-84
2023/08/26 06:07:07;;;;;;;11.75;7.22;;;28.00;78.50;;;;;;5014821;28;20053;-83
2023/08/26 06:09:32;;;;;;;9.80;6.55;;;28.10;78.60;;;;;;4998005;28;20083;-81
2023/08/26 06:11:58;;;;;;;8.68;6.63;;;28.10;78.60;;;;;;5002891;28;20056;-81
2023/08/26 06:14:24;;;;;;;6.93;6.22;;;28.20;78.80;;;;;;5015239;28;20042;-82
2023/08/26 06:16:49;;;;;;;9.10;6.47;;;28.20;78.80;;;;;;5019963;28;20025;-82
2023/08/26 06:19:15;;;;;;;11.00;6.15;;;28.30;78.80;;;;;;5015494;28;20026;-81
2023/08/26 06:21:42;;;;;;;7.65;6.53;;;28.30;78.50;;;;;;5015096;28;20022;-85
2023/08/26 06:24:09;;;;;;;6.93;6.22;;;28.30;78.50;;;;;;5015734;28;20101;-84
2023/08/26 06:26:35;;;;;;;6.88;6.15;;;28.30;78.60;;;;;;4982579;28;20041;-86
2023/08/26 06:29:01;;;;;;;7.38;6.50;;;28.30;78.60;;;;;;5000874;28;20029;-88
2023/08/26 06:31:26;;;;;;;12.55;7.55;;;28.30;78.60;;;;;;5022280;28;20105;-87
2023/08/26 06:33:53;;;;;;;7.30;6.60;;;28.30;78.60;;;;;;5015592;28;20406;-89
2023/08/26 06:36:19;;;;;;;7.07;6.43;;;28.40;78.60;;;;;;5010660;28;20120;-85
2023/08/26 06:38:44;;;;;;;7.05;6.30;;;28.40;78.70;;;;;;5006695;28;20433;-89
2023/08/26 06:41:11;;;;;;;8.98;6.93;;;28.40;78.80;;;;;;5015698;28;20137;-88
2023/08/26 06:43:36;;;;;;;7.45;6.55;;;28.40;78.70;;;;;;5009589;28;20466;-89
2023/08/26 06:46:03;;;;;;;9.80;6.88;;;28.50;78.60;;;;;;4998926;28;20027;-88
2023/08/26 06:48:28;;;;;;;8.50;6.50;;;28.50;78.50;;;;;;5010591;28;20447;-87
2023/08/26 06:50:54;;;;;;;7.18;6.25;;;28.50;78.50;;;;;;5014078;28;20113;-83
2023/08/26 06:53:23;;;;;;;9.43;7.65;;;28.50;78.40;;;;;;5010832;28;20042;-84
2023/08/26 06:55:52;;;;;;;7.35;6.47;;;28.50;78.30;;;;;;5028483;28;20025;-84
2023/08/26 06:58:19;;;;;;;9.38;7.03;;;28.50;78.50;;;;;;5032052;28;20041;-84
2023/08/26 07:00:44;;;;;;;7.18;6.50;;;28.50;78.50;;;;;;5028509;28;20104;-83
2023/08/26 07:03:10;;;;;;;8.48;6.75;;;28.50;78.60;;;;;;5016786;28;20117;-84
2023/08/26 07:05:38;;;;;;;14.30;6.78;;;28.50;78.60;;;;;;5014429;28;20045;-87
2023/08/26 07:08:04;;;;;;;8.77;7.18;;;28.50;78.80;;;;;;5007231;28;20106;-84
2023/08/26 07:10:30;;;;;;;12.68;6.85;;;28.60;78.60;;;;;;5003418;28;20041;-83
2023/08/26 07:12:55;;;;;;;11.27;7.20;;;28.70;78.90;;;;;;5030738;28;20064;-84
2023/08/26 07:15:21;;;;;;;10.02;8.48;;;28.80;78.50;;;;;;5014651;28;20021;-83
2023/08/26 07:17:47;;;;;;;8.55;6.75;;;28.80;78.40;;;;;;5015021;28;20037;-83
2023/08/26 07:20:12;;;;;;;8.02;6.55;;;28.80;78.60;;;;;;5014574;28;20045;-84
2023/08/26 07:22:38;;;;;;;15.43;7.47;;;28.80;78.60;;;;;;5017117;28;20025;-83
2023/08/26 07:25:05;;;;;;;21.67;8.57;;;28.90;78.50;;;;;;5018535;28;20357;-84
2023/08/26 07:27:30;;;;;;;7.88;5.82;;;28.90;78.50;;;;;;5023040;28;20018;-83
2023/08/26 07:29:56;;;;;;;8.82;7.13;;;28.90;78.40;;;;;;5014976;28;20363;-83
2023/08/26 07:32:22;;;;;;;8.43;6.95;;;29.00;78.60;;;;;;5014861;28;20029;-83
2023/08/26 07:34:51;;;;;;;21.15;8.63;;;29.00;78.40;;;;;;5014444;28;20422;-84
2023/08/26 07:37:17;;;;;;;11.63;6.05;;;29.10;78.40;;;;;;5014782;28;20032;-84
2023/08/26 07:39:42;;;;;;;12.77;6.95;;;29.10;78.30;;;;;;5014879;28;20033;-84
2023/08/26 07:42:08;;;;;;;7.65;6.80;;;29.20;78.40;;;;;;5015050;28;20022;-83
2023/08/26 07:44:34;;;;;;;8.52;7.15;;;29.30;78.50;;;;;;5014043;28;20073;-84
2023/08/26 07:46:59;;;;;;;8.68;6.40;;;29.30;78.50;;;;;;5026447;28;20461;-84
2023/08/26 07:49:25;;;;;;;7.38;6.53;;;29.40;78.40;;;;;;5029351;28;20041;-84
2023/08/26 07:51:51;;;;;;;9.43;6.93;;;29.50;78.30;;;;;;5014484;28;20037;-84
2023/08/26 07:54:16;;;;;;;6.57;5.97;;;29.60;78.30;;;;;;5017114;28;20104;-80
2023/08/26 07:56:42;;;;;;;7.28;6.57;;;29.60;78.20;;;;;;5034319;28;20029;-83
2023/08/26 07:59:08;;;;;;;7.88;7.00;;;29.70;78.00;;;;;;5024632;28;20033;-84
2023/08/26 08:01:33;;;;;;;8.48;6.80;;;29.80;78.00;;;;;;5027441;28;20080;-84
2023/08/26 08:03:59;;;;;;;8.80;6.10;;;29.90;77.90;;;;;;5022347;28;20160;-84
2023/08/26 08:06:25;;;;;;;7.93;6.65;;;30.00;78.30;;;;;;5013862;28;20482;-85
2023/08/26 08:08:51;;;;;;;8.48;6.55;;;30.10;78.30;;;;;;5014111;28;20104;-86
2023/08/26 08:11:17;;;;;;;8.18;7.07;;;30.20;78.30;;;;;;5014107;28;20026;-84
2023/08/26 08:13:42;;;;;;;7.38;6.43;;;30.30;77.00;;;;;;5014108;28;20437;-84
2023/08/26 08:16:08;;;;;;;8.82;6.75;;;30.30;77.20;;;;;;5013983;28;20022;-84
2023/08/26 08:18:34;;;;;;;7.35;6.50;;;30.40;77.20;;;;;;4992793;28;20130;-86
2023/08/26 08:20:59;;;;;;;11.05;7.20;;;30.50;77.30;;;;;;4994787;28;20029;-86
2023/08/26 08:23:25;;;;;;;7.25;6.55;;;30.60;77.40;;;;;;5013537;28;20033;-84
2023/08/26 08:25:52;;;;;;;9.50;7.45;;;30.70;77.00;;;;;;5033572;28;20022;-84
2023/08/26 08:28:17;;;;;;;9.85;5.95;;;30.80;76.00;;;;;;5016258;28;20036;-84
2023/08/26 08:30:43;;;;;;;13.00;7.50;;;30.80;76.10;;;;;;5021546;28;20440;-84
2023/08/26 08:33:09;;;;;;;8.90;6.60;;;30.80;75.70;;;;;;5016315;28;20096;-84
2023/08/26 08:35:34;;;;;;;8.57;7.78;;;30.80;75.60;;;;;;5013885;28;20040;-86
2023/08/26 08:38:00;;;;;;;10.55;6.47;;;30.80;75.10;;;;;;5013580;28;20030;-85
2023/08/26 08:40:26;;;;;;;6.97;6.28;;;30.90;75.50;;;;;;5013953;28;20040;-85
2023/08/26 08:42:54;;;;;;;10.00;6.82;;;31.00;75.40;;;;;;5014147;28;20026;-84
2023/08/26 08:45:21;;;;;;;7.82;7.07;;;31.00;75.20;;;;;;5016426;28;20490;-83
2023/08/26 08:47:49;;;;;;;7.97;6.85;;;31.20;75.10;;;;;;5001364;28;20022;-84
2023/08/26 08:50:18;;;;;;;9.30;7.10;;;31.30;74.90;;;;;;5000801;28;20041;-86
2023/08/26 08:52:46;;;;;;;8.38;6.63;;;31.40;74.70;;;;;;5013791;28;20029;-86
2023/08/26 08:55:12;;;;;;;7.53;6.72;;;31.50;74.80;;;;;;5013163;28;20175;-87
2023/08/26 08:57:40;;;;;;;7.07;6.47;;;31.60;74.00;;;;;;5011705;28;20488;-86
2023/08/26 09:00:07;;;;;;;8.77;7.35;;;31.70;74.10;;;;;;5007411;28;20046;-87
2023/08/26 09:02:39;;;;;;;9.65;6.93;;;31.80;73.10;;;;;;5020055;28;20442;-87
2023/08/26 09:05:05;;;;;;;7.70;6.95;;;31.90;73.00;;;;;;5020888;28;20030;-86
2023/08/26 09:07:33;;;;;;;7.68;6.97;;;32.00;73.00;;;;;;5017005;28;20062;-86
2023/08/26 09:09:59;;;;;;;8.00;6.55;;;32.20;71.40;;;;;;5010617;28;20037;-86
2023/08/26 09:12:24;;;;;;;6.20;5.60;;;32.30;72.40;;;;;;5024490;28;20026;-85
2023/08/26 09:14:51;;;;;;;8.00;7.00;;;32.40;71.90;;;;;;5004112;28;20038;-82
2023/08/26 09:17:18;;;;;;;7.43;6.70;;;32.50;71.40;;;;;;5012112;28;20049;-82
2023/08/26 09:19:54;;;;;;;6.82;6.22;;;32.60;71.40;;;;;;5010535;28;20034;-79
2023/08/26 09:22:27;;;;;;;6.80;6.07;;;32.70;70.90;;;;;;5007253;28;20026;-79
2023/08/26 09:25:03;;;;;;;7.15;6.45;;;32.80;70.70;;;;;;5001610;28;20038;-78
2023/08/26 09:27:33;;;;;;;9.57;6.78;;;32.90;70.60;;;;;;5009932;28;20034;-77
2023/08/26 09:29:58;;;;;;;10.00;6.57;;;33.10;70.00;;;;;;5014472;28;20045;-77
2023/08/26 09:32:55;;;;;;;7.63;6.82;;;33.20;68.50;;;;;;5016743;28;20026;-81
2023/08/26 09:35:21;;;;;;;7.13;6.28;;;33.30;69.00;;;;;;4992977;28;20038;-78
2023/08/26 09:37:58;;;;;;;6.93;6.22;;;33.40;69.30;;;;;;5013886;28;20112;-77
2023/08/26 09:40:24;;;;;;;6.90;6.20;;;33.50;68.90;;;;;;5019324;28;20065;-77
2023/08/26 09:42:51;;;;;;;7.10;6.40;;;33.50;68.40;;;;;;5020335;28;20018;-77
2023/08/26 09:45:19;;;;;;;6.90;6.30;;;33.60;68.10;;;;;;5011576;28;20038;-77
2023/08/26 09:47:48;;;;;;;8.43;6.28;;;33.70;68.40;;;;;;5012748;28;20470;-77
2023/08/26 09:50:16;;;;;;;8.52;5.93;;;33.80;68.10;;;;;;5011865;28;20034;-76
2023/08/26 09:52:47;;;;;;;7.60;6.28;;;33.90;67.70;;;;;;5014074;28;20457;-76
2023/08/26 09:55:15;;;;;;;10.55;6.80;;;34.00;67.60;;;;;;5012507;28;20036;-81
2023/08/26 09:57:43;;;;;;;6.27;5.67;;;34.20;67.60;;;;;;4993650;28;20033;-82
2023/08/26 10:00:12;;;;;;;9.10;6.05;;;34.40;67.40;;;;;;4998096;28;20030;-83
2023/08/26 10:02:43;;;;;;;;;;;34.50;65.90;;;;;;5010374;28;20506;-82
2023/08/26 10:05:15;;;;;;;10.43;6.20;;;34.50;65.90;;;;;;5000651;28;19920;-83
2023/08/26 10:07:43;;;;;;;8.98;6.60;;;34.60;65.50;;;;;;5002199;28;20029;-83
2023/08/26 10:10:18;;;;;;;7.47;6.78;;;34.60;64.00;;;;;;5017393;28;20021;-83
2023/08/26 10:12:47;;;;;;;6.38;5.78;;;34.70;65.10;;;;;;4995930;28;20058;-84
2023/08/26 10:15:17;;;;;;;7.43;5.80;;;34.80;65.40;;;;;;5014143;28;20108;-83
2023/08/26 10:17:47;;;;;;;7.43;6.32;;;34.90;64.70;;;;;;5011732;28;20026;-83
2023/08/26 10:20:13;;;;;;;7.13;6.43;;;35.10;64.90;;;;;;5016271;28;20030;-84
2023/08/26 10:22:40;;;;;;;6.82;6.20;;;35.30;63.60;;;;;;5014598;28;20096;-84
2023/08/26 10:25:06;;;;;;;10.23;6.65;;;35.30;63.50;;;;;;5016343;28;20042;-83
2023/08/26 10:27:49;;;;;;;7.13;6.35;;;35.30;63.70;;;;;;5017073;28;20026;-83
2023/08/26 10:30:17;;;;;;;6.97;6.38;;;35.30;62.70;;;;;;4991756;28;20389;-83
2023/08/26 10:32:46;;;;;;;7.78;7.03;;;35.40;63.40;;;;;;5024170;28;20108;-77
2023/08/26 10:35:13;;;;;;;6.93;6.32;;;35.50;63.60;;;;;;5005887;28;20029;-77
2023/08/26 10:37:42;;;;;;;8.57;7.15;;;35.70;63.00;;;;;;5021234;28;20108;-78
2023/08/26 10:40:11;;;;;;;8.27;6.32;;;35.80;61.80;;;;;;5025525;28;20034;-78
2023/08/26 10:42:37;;;;;;;10.18;7.90;;;35.90;62.60;;;;;;5015741;28;20014;-78
2023/08/26 10:45:12;;;;;;;6.85;6.25;;;36.10;62.80;;;;;;5015340;28;20470;-77
2023/08/26 10:47:40;;;;;;;7.18;6.47;;;36.20;62.90;;;;;;5014695;28;20465;-77
2023/08/26 10:50:19;;;;;;;6.97;6.28;;;36.30;63.00;;;;;;5005466;28;20068;-77
2023/08/26 10:53:12;;;;;;;7.13;6.40;;;36.40;62.50;;;;;;5008786;28;20033;-77
2023/08/26 10:55:38;;;;;;;6.60;5.95;;;36.60;62.50;;;;;;5006210;28;20033;-77
2023/08/26 10:58:07;;;;;;;8.75;7.35;;;36.70;63.40;;;;;;5012259;28;20037;-77
2023/08/26 11:00:37;;;;;;;7.95;7.10;;;36.80;64.10;;;;;;5009916;28;20477;-77
2023/08/26 11:03:03;;;;;;;9.85;7.40;;;37.00;64.60;;;;;;5010404;28;20112;-77
2023/08/26 11:05:29;;;;;;;7.65;6.95;;;37.10;64.60;;;;;;4998181;28;20061;-77
2023/08/26 11:07:56;;;;;;;7.03;6.43;;;37.20;64.30;;;;;;5005321;28;20030;-77
2023/08/26 11:10:32;;;;;;;8.40;7.43;;;37.50;64.40;;;;;;4997410;28;20183;-84
2023/08/26 11:12:58;;;;;;;12.70;7.88;;;37.70;64.30;;;;;;5016154;28;20096;-78
2023/08/26 11:15:24;;;;;;;9.25;7.57;;;37.90;64.20;;;;;;5020143;28;20018;-77
2023/08/26 11:17:50;;;;;;;15.55;7.20;;;37.90;64.00;;;;;;5019724;28;20025;-83
2023/08/26 11:20:17;;;;;;;7.60;6.93;;;37.90;63.60;;;;;;5023171;28;20030;-84
2023/08/26 11:22:44;;;;;;;7.95;7.10;;;38.00;63.60;;;;;;5008876;28;20029;-84
2023/08/26 11:25:16;;;;;;;7.65;6.80;;;38.10;63.60;;;;;;5015776;28;20448;-85
2023/08/26 11:27:42;;;;;;;8.65;7.25;;;38.30;63.20;;;;;;5018784;28;20343;-84
2023/08/26 11:30:21;;;;;;;8.15;7.35;;;38.60;61.70;;;;;;5005482;28;20028;-84
2023/08/26 11:32:58;;;;;;;7.70;7.00;;;38.70;61.90;;;;;;4995249;28;20038;-84
2023/08/26 11:35:25;;;;;;;8.90;7.97;;;38.80;62.00;;;;;;4995220;28;20030;-84
2023/08/26 11:37:52;;;;;;;8.07;6.63;;;39.00;62.40;;;;;;5013211;28;20100;-84
2023/08/26 11:40:18;;;;;;;9.70;7.35;;;39.20;62.30;;;;;;5011674;28;20694;-84
2023/08/26 11:42:50;;;;;;;9.23;7.00;;;39.30;62.20;;;;;;5011813;28;20106;-85
2023/08/26 11:45:15;;;;;;;8.52;7.72;;;39.50;61.90;;;;;;5004136;28;20097;-85
2023/08/26 11:47:41;;;;;;;7.68;6.97;;;39.60;60.60;;;;;;5010545;28;20164;-85
2023/08/26 11:50:09;;;;;;;8.88;6.93;;;39.70;60.60;;;;;;5009140;28;20041;-84
2023/08/26 11:52:36;;;;;;;8.20;7.40;;;39.90;59.80;;;;;;5012135;28;20169;-79
2023/08/26 11:55:06;;;;;;;7.32;6.43;;;40.10;59.80;;;;;;5011033;28;20513;-80
2023/08/26 11:57:40;;;;;;;8.27;7.43;;;40.20;59.30;;;;;;5007952;28;20026;-80
2023/08/26 12:00:13;;;;;;;8.50;7.57;;;40.40;59.50;;;;;;5003472;28;20368;-80
2023/08/26 12:02:44;;;;;;;7.72;6.93;;;40.50;59.00;;;;;;4990885;28;20018;-83
2023/08/26 12:05:10;;;;;;;7.70;6.80;;;40.70;58.10;;;;;;4993369;28;20025;-84
2023/08/26 12:07:48;;;;;;;7.70;6.72;;;40.60;57.70;;;;;;5004449;28;20066;-84
2023/08/26 12:10:17;;;;;;;8.20;6.88;;;40.60;57.30;;;;;;5012838;28;20038;-83
2023/08/26 12:12:44;;;;;;;8.15;6.88;;;40.70;56.60;;;;;;5012419;28;20438;-84
2023/08/26 12:15:13;;;;;;;8.27;7.22;;;40.70;58.00;;;;;;5009778;28;20104;-79
2023/08/26 12:18:04;;;;;;;7.38;6.68;;;40.80;57.70;;;;;;5007995;28;20116;-79
2023/08/26 12:20:31;;;;;;;8.27;6.95;;;41.00;56.70;;;;;;5009857;28;20550;-84
2023/08/26 12:23:02;;;;;;;7.85;7.00;;;41.30;56.60;;;;;;5010405;28;20058;-79
2023/08/26 12:25:30;;;;;;;7.90;7.10;;;41.40;56.80;;;;;;4992510;28;20358;-83
2023/08/26 12:28:26;;;;;;;8.27;7.57;;;41.50;56.90;;;;;;5013830;28;20111;-81
2023/08/26 12:30:52;;;;;;;10.20;7.88;;;41.60;56.00;;;;;;5009979;28;20128;-83
2023/08/26 12:33:19;;;;;;;8.77;7.32;;;41.60;56.00;;;;;;5005091;28;20485;-84
2023/08/26 12:35:45;;;;;;;10.32;7.45;;;41.50;55.90;;;;;;4993186;28;20029;-83
2023/08/26 12:38:12;;;;;;;8.85;7.05;;;41.50;56.20;;;;;;5014666;28;20038;-79
2023/08/26 12:40:40;;;;;;;7.72;7.03;;;41.50;56.90;;;;;;5013667;28;20029;-78
2023/08/26 12:43:06;;;;;;;8.05;7.00;;;41.50;55.40;;;;;;5012287;28;20112;-78
2023/08/26 12:45:33;;;;;;;9.90;7.25;;;41.70;54.70;;;;;;4992980;28;20648;-83
2023/08/26 12:48:00;;;;;;;7.90;7.10;;;41.70;54.50;;;;;;5012159;28;20072;-84